createdAt,value
2023-05-10T00:00:26.330Z,477.00
2023-05-10T00:01:26.416Z,476.00
2023-05-10T00:02:26.405Z,476.00
2023-05-10T00:03:26.592Z,476.00
2023-05-10T00:04:26.468Z,475.00
2023-05-10T00:05:26.638Z,477.00
2023-05-10T00:06:26.562Z,474.00
2023-05-10T00:07:26.575Z,471.00
2023-05-10T00:08:26.651Z,471.00
2023-05-10T00:09:26.674Z,470.00
2023-05-10T00:10:26.954Z,471.00
2023-05-10T00:11:26.848Z,474.00
2023-05-10T00:12:27.795Z,474.00
2023-05-10T00:13:26.937Z,472.00
2023-05-10T00:14:26.880Z,472.00
2023-05-10T00:15:26.910Z,470.00
2023-05-10T00:16:26.984Z,470.00
2023-05-10T00:17:27.196Z,470.00
2023-05-10T00:18:27.032Z,470.00
2023-05-10T00:19:27.060Z,472.00
2023-05-10T00:20:27.117Z,473.00
2023-05-10T00:21:27.175Z,475.00
2023-05-10T00:22:27.226Z,476.00
2023-05-10T00:23:27.258Z,477.00
2023-05-10T00:24:27.320Z,476.00
2023-05-10T00:25:27.369Z,476.00
2023-05-10T00:26:27.431Z,476.00
2023-05-10T00:27:27.655Z,477.00
2023-05-10T00:28:27.512Z,477.00
2023-05-10T00:29:27.573Z,477.00
2023-05-10T00:30:27.601Z,476.00
2023-05-10T00:31:27.717Z,478.00
2023-05-10T00:32:27.725Z,479.00
2023-05-10T00:33:27.758Z,481.00
2023-05-10T00:34:27.806Z,483.00
2023-05-10T00:35:27.833Z,481.00
2023-05-10T00:36:27.889Z,480.00
2023-05-10T00:37:27.937Z,480.00
2023-05-10T00:38:27.971Z,479.00
2023-05-10T00:39:28.016Z,478.00
2023-05-10T00:40:28.057Z,478.00
2023-05-10T00:41:28.265Z,478.00
2023-05-10T00:42:28.161Z,479.00
2023-05-10T00:43:28.226Z,479.00
2023-05-10T00:44:28.264Z,479.00
2023-05-10T00:45:28.294Z,480.00
2023-05-10T00:46:28.419Z,479.00
2023-05-10T00:47:28.595Z,479.00
2023-05-10T00:48:28.596Z,483.00
2023-05-10T00:49:28.480Z,481.00
2023-05-10T00:50:28.530Z,480.00
2023-05-10T00:51:28.586Z,482.00
2023-05-10T00:52:28.839Z,481.00
2023-05-10T00:53:28.886Z,482.00
2023-05-10T00:54:28.786Z,481.00
2023-05-10T00:55:28.721Z,481.00
2023-05-10T00:56:28.775Z,481.00
2023-05-10T00:57:28.834Z,478.00
2023-05-10T00:58:28.889Z,475.00
2023-05-10T00:59:29.113Z,473.00
2023-05-10T01:00:28.957Z,473.00
2023-05-10T01:01:29.059Z,473.00
2023-05-10T01:02:29.147Z,473.00
2023-05-10T01:03:29.251Z,474.00
2023-05-10T01:04:29.213Z,475.00
2023-05-10T01:05:29.203Z,476.00
2023-05-10T01:06:29.237Z,475.00
2023-05-10T01:07:29.296Z,473.00
2023-05-10T01:08:29.356Z,473.00
2023-05-10T01:09:29.378Z,474.00
2023-05-10T01:10:29.418Z,476.00
2023-05-10T01:11:29.508Z,476.00
2023-05-10T01:12:29.738Z,478.00
2023-05-10T01:13:29.624Z,476.00
2023-05-10T01:14:29.608Z,474.00
2023-05-10T01:15:29.667Z,475.00
2023-05-10T01:16:29.742Z,475.00
2023-05-10T01:17:29.775Z,476.00
2023-05-10T01:18:29.804Z,476.00
2023-05-10T01:19:29.837Z,476.00
2023-05-10T01:20:29.881Z,477.00
2023-05-10T01:21:29.944Z,480.00
2023-05-10T01:22:29.978Z,480.00
2023-05-10T01:23:30.061Z,481.00
2023-05-10T01:24:30.054Z,479.00
2023-05-10T01:25:30.135Z,479.00
2023-05-10T01:26:30.179Z,478.00
2023-05-10T01:27:30.213Z,475.00
2023-05-10T01:28:30.297Z,475.00
2023-05-10T01:29:30.307Z,475.00
2023-05-10T01:30:30.330Z,475.00
2023-05-10T01:31:30.394Z,475.00
2023-05-10T01:32:30.465Z,476.00
2023-05-10T01:33:30.511Z,476.00
2023-05-10T01:34:30.587Z,476.00
2023-05-10T01:35:30.571Z,475.00
2023-05-10T01:36:30.638Z,477.00
2023-05-10T01:37:30.815Z,479.00
2023-05-10T01:38:30.961Z,477.00
2023-05-10T01:39:30.833Z,475.00
2023-05-10T01:40:30.821Z,474.00
2023-05-10T01:41:31.021Z,474.00
2023-05-10T01:42:30.929Z,471.00
2023-05-10T01:43:30.989Z,470.00
2023-05-10T01:44:31.021Z,471.00
2023-05-10T01:45:31.073Z,471.00
2023-05-10T01:46:31.191Z,471.00
2023-05-10T01:47:31.181Z,470.00
2023-05-10T01:48:31.199Z,470.00
2023-05-10T01:49:31.272Z,470.00
2023-05-10T01:50:31.416Z,472.00
2023-05-10T01:51:31.469Z,472.00
2023-05-10T01:52:31.411Z,473.00
2023-05-10T01:53:31.485Z,472.00
2023-05-10T01:54:31.511Z,471.00
2023-05-10T01:55:31.593Z,469.00
2023-05-10T01:56:31.654Z,469.00
2023-05-10T01:57:31.647Z,468.00
2023-05-10T01:58:31.724Z,463.00
2023-05-10T01:59:31.765Z,463.00
2023-05-10T02:00:31.888Z,465.00
2023-05-10T02:01:32.033Z,466.00
2023-05-10T02:02:31.954Z,466.00
2023-05-10T02:03:32.047Z,468.00
2023-05-10T02:04:32.060Z,469.00
2023-05-10T02:05:32.203Z,468.00
2023-05-10T02:06:32.367Z,468.00
2023-05-10T02:07:32.511Z,468.00
2023-05-10T02:08:32.779Z,467.00
2023-05-10T02:09:32.911Z,469.00
2023-05-10T02:10:33.150Z,469.00
2023-05-10T02:11:33.231Z,469.00
2023-05-10T02:12:33.389Z,474.00
2023-05-10T02:13:33.406Z,476.00
2023-05-10T02:14:33.570Z,477.00
2023-05-10T02:15:33.636Z,478.00
2023-05-10T02:16:33.696Z,477.00
2023-05-10T02:17:33.668Z,475.00
2023-05-10T02:18:33.632Z,472.00
2023-05-10T02:19:33.607Z,471.00
2023-05-10T02:20:33.643Z,469.00
2023-05-10T02:21:33.604Z,472.00
2023-05-10T02:22:33.585Z,473.00
2023-05-10T02:23:33.607Z,473.00
2023-05-10T02:24:33.791Z,473.00
2023-05-10T02:25:33.741Z,475.00
2023-05-10T02:26:33.741Z,473.00
2023-05-10T02:27:33.780Z,473.00
2023-05-10T02:28:33.658Z,473.00
2023-05-10T02:29:33.548Z,470.00
2023-05-10T02:30:33.601Z,470.00
2023-05-10T02:31:33.706Z,469.00
2023-05-10T02:32:33.526Z,469.00
2023-05-10T02:33:33.544Z,467.00
2023-05-10T02:34:33.507Z,470.00
2023-05-10T02:35:33.502Z,471.00
2023-05-10T02:36:33.479Z,470.00
2023-05-10T02:37:33.470Z,473.00
2023-05-10T02:38:33.497Z,473.00
2023-05-10T02:39:33.518Z,474.00
2023-05-10T02:40:33.512Z,474.00
2023-05-10T02:41:33.458Z,474.00
2023-05-10T02:42:33.459Z,473.00
2023-05-10T02:43:33.471Z,473.00
2023-05-10T02:44:33.431Z,473.00
2023-05-10T02:45:33.524Z,472.00
2023-05-10T02:46:33.670Z,472.00
2023-05-10T02:47:33.620Z,471.00
2023-05-10T02:48:33.411Z,471.00
2023-05-10T02:49:33.411Z,471.00
2023-05-10T02:50:33.451Z,471.00
2023-05-10T02:51:33.396Z,468.00
2023-05-10T02:52:33.362Z,466.00
2023-05-10T02:53:33.378Z,465.00
2023-05-10T02:54:33.354Z,465.00
2023-05-10T02:55:33.376Z,465.00
2023-05-10T02:56:33.344Z,466.00
2023-05-10T02:57:33.342Z,470.00
2023-05-10T02:58:33.374Z,471.00
2023-05-10T02:59:33.336Z,469.00
2023-05-10T03:00:33.371Z,466.00
2023-05-10T03:01:33.393Z,468.00
2023-05-10T03:02:33.549Z,467.00
2023-05-10T03:03:33.464Z,467.00
2023-05-10T03:04:33.560Z,466.00
2023-05-10T03:05:33.559Z,464.00
2023-05-10T03:06:33.574Z,467.00
2023-05-10T03:07:33.733Z,465.00
2023-05-10T03:08:33.652Z,465.00
2023-05-10T03:09:33.664Z,464.00
2023-05-10T03:10:33.675Z,463.00
2023-05-10T03:11:33.850Z,463.00
2023-05-10T03:12:33.887Z,464.00
2023-05-10T03:13:34.146Z,466.00
2023-05-10T03:14:33.901Z,466.00
2023-05-10T03:15:33.935Z,466.00
2023-05-10T03:16:34.027Z,467.00
2023-05-10T03:17:34.066Z,466.00
2023-05-10T03:18:34.112Z,466.00
2023-05-10T03:19:34.326Z,465.00
2023-05-10T03:20:34.222Z,465.00
2023-05-10T03:21:34.281Z,465.00
2023-05-10T03:22:34.350Z,467.00
2023-05-10T03:23:34.591Z,467.00
2023-05-10T03:24:34.476Z,469.00
2023-05-10T03:25:34.514Z,468.00
2023-05-10T03:26:34.611Z,466.00
2023-05-10T03:27:34.626Z,469.00
2023-05-10T03:28:34.664Z,467.00
2023-05-10T03:29:34.709Z,466.00
2023-05-10T03:30:34.780Z,465.00
2023-05-10T03:31:34.980Z,465.00
2023-05-10T03:32:34.895Z,464.00
2023-05-10T03:33:34.925Z,464.00
2023-05-10T03:34:34.988Z,466.00
2023-05-10T03:35:34.989Z,468.00
2023-05-10T03:36:35.039Z,466.00
2023-05-10T03:37:35.118Z,467.00
2023-05-10T03:38:35.136Z,466.00
2023-05-10T03:39:35.186Z,467.00
2023-05-10T03:40:35.244Z,468.00
2023-05-10T03:41:35.301Z,467.00
2023-05-10T03:42:35.361Z,470.00
2023-05-10T03:43:35.537Z,472.00
2023-05-10T03:44:35.452Z,473.00
2023-05-10T03:45:35.519Z,470.00
2023-05-10T03:46:35.597Z,469.00
2023-05-10T03:47:35.639Z,468.00
2023-05-10T03:48:35.668Z,470.00
2023-05-10T03:49:35.721Z,471.00
2023-05-10T03:50:35.777Z,470.00
2023-05-10T03:51:35.978Z,473.00
2023-05-10T03:52:35.889Z,470.00
2023-05-10T03:53:35.931Z,470.00
2023-05-10T03:54:36.022Z,473.00
2023-05-10T03:55:35.993Z,474.00
2023-05-10T03:56:36.036Z,473.00
2023-05-10T03:57:36.100Z,472.00
2023-05-10T03:58:36.153Z,470.00
2023-05-10T03:59:36.201Z,468.00
2023-05-10T04:00:36.257Z,468.00
2023-05-10T04:01:36.418Z,470.00
2023-05-10T04:02:36.461Z,470.00
2023-05-10T04:03:36.523Z,472.00
2023-05-10T04:04:36.639Z,473.00
2023-05-10T04:05:36.518Z,472.00
2023-05-10T04:06:36.600Z,470.00
2023-05-10T04:07:36.581Z,471.00
2023-05-10T04:08:36.651Z,469.00
2023-05-10T04:09:36.701Z,468.00
2023-05-10T04:10:36.756Z,470.00
2023-05-10T04:11:36.827Z,468.00
2023-05-10T04:12:36.862Z,467.00
2023-05-10T04:13:36.943Z,466.00
2023-05-10T04:14:37.008Z,464.00
2023-05-10T04:15:37.044Z,465.00
2023-05-10T04:16:37.178Z,463.00
2023-05-10T04:17:37.212Z,462.00
2023-05-10T04:18:37.221Z,462.00
2023-05-10T04:19:37.384Z,461.00
2023-05-10T04:20:37.337Z,462.00
2023-05-10T04:21:37.400Z,463.00
2023-05-10T04:22:37.450Z,461.00
2023-05-10T04:23:37.516Z,461.00
2023-05-10T04:24:37.588Z,461.00
2023-05-10T04:25:37.640Z,462.00
2023-05-10T04:26:37.708Z,463.00
2023-05-10T04:27:37.732Z,463.00
2023-05-10T04:28:37.764Z,464.00
2023-05-10T04:29:37.830Z,462.00
2023-05-10T04:30:37.922Z,463.00
2023-05-10T04:31:38.113Z,466.00
2023-05-10T04:32:38.032Z,464.00
2023-05-10T04:33:38.088Z,462.00
2023-05-10T04:34:38.126Z,462.00
2023-05-10T04:35:38.182Z,461.00
2023-05-10T04:36:38.233Z,462.00
2023-05-10T04:37:38.302Z,461.00
2023-05-10T04:38:38.315Z,459.00
2023-05-10T04:39:40.229Z,460.00
2023-05-10T04:40:38.351Z,458.00
2023-05-10T04:41:38.339Z,457.00
2023-05-10T04:42:38.361Z,456.00
2023-05-10T04:43:38.332Z,456.00
2023-05-10T04:44:38.468Z,456.00
2023-05-10T04:45:38.312Z,456.00
2023-05-10T04:46:38.552Z,457.00
2023-05-10T04:47:38.548Z,456.00
2023-05-10T04:48:38.321Z,457.00
2023-05-10T04:49:38.310Z,458.00
2023-05-10T04:50:38.285Z,458.00
2023-05-10T04:51:38.275Z,459.00
2023-05-10T04:52:38.269Z,461.00
2023-05-10T04:53:38.276Z,459.00
2023-05-10T04:54:38.260Z,460.00
2023-05-10T04:55:38.247Z,460.00
2023-05-10T04:56:38.269Z,461.00
2023-05-10T04:57:38.240Z,460.00
2023-05-10T04:58:38.248Z,461.00
2023-05-10T04:59:38.267Z,461.00
2023-05-10T05:00:38.247Z,463.00
2023-05-10T05:01:38.268Z,464.00
2023-05-10T05:02:38.310Z,462.00
2023-05-10T05:03:38.324Z,461.00
2023-05-10T05:04:38.198Z,463.00
2023-05-10T05:05:38.206Z,465.00
2023-05-10T05:06:38.180Z,466.00
2023-05-10T05:07:38.169Z,465.00
2023-05-10T05:08:38.180Z,468.00
2023-05-10T05:09:38.172Z,469.00
2023-05-10T05:10:38.160Z,467.00
2023-05-10T05:11:38.161Z,465.00
2023-05-10T05:12:38.134Z,465.00
2023-05-10T05:13:38.143Z,466.00
2023-05-10T05:14:38.133Z,466.00
2023-05-10T05:15:38.110Z,467.00
2023-05-10T05:16:38.129Z,468.00
2023-05-10T05:17:38.240Z,464.00
2023-05-10T05:18:38.220Z,463.00
2023-05-10T05:19:38.291Z,464.00
2023-05-10T05:20:38.322Z,465.00
2023-05-10T05:21:38.404Z,466.00
2023-05-10T05:22:38.459Z,464.00
2023-05-10T05:23:38.517Z,463.00
2023-05-10T05:24:38.584Z,463.00
2023-05-10T05:25:38.626Z,464.00
2023-05-10T05:26:38.684Z,468.00
2023-05-10T05:27:38.730Z,474.00
2023-05-10T05:28:38.800Z,485.00
2023-05-10T05:29:38.827Z,500.00
2023-05-10T05:30:38.877Z,509.00
2023-05-10T05:31:38.955Z,519.00
2023-05-10T05:32:38.992Z,556.00
2023-05-10T05:33:39.040Z,601.00
2023-05-10T05:34:39.103Z,639.00
2023-05-10T05:35:39.155Z,637.00
2023-05-10T05:36:39.229Z,652.00
2023-05-10T05:37:39.253Z,729.00
2023-05-10T05:38:39.291Z,745.00
2023-05-10T05:39:39.373Z,750.00
2023-05-10T05:40:39.379Z,757.00
2023-05-10T05:41:39.427Z,772.00
2023-05-10T05:42:39.489Z,800.00
2023-05-10T05:43:39.517Z,818.00
2023-05-10T05:44:39.568Z,873.00
2023-05-10T05:45:39.631Z,890.00
2023-05-10T05:46:39.601Z,902.00
2023-05-10T05:47:39.654Z,918.00
2023-05-10T05:48:39.695Z,925.00
2023-05-10T05:49:40.237Z,933.00
2023-05-10T05:50:39.724Z,935.00
2023-05-10T05:51:39.762Z,939.00
2023-05-10T05:52:39.786Z,946.00
2023-05-10T05:53:39.806Z,955.00
2023-05-10T05:54:39.837Z,971.00
2023-05-10T05:55:39.828Z,984.00
2023-05-10T05:56:39.859Z,978.00
2023-05-10T05:57:39.865Z,968.00
2023-05-10T05:58:39.892Z,963.00
2023-05-10T05:59:39.893Z,956.00
2023-05-10T06:00:39.953Z,942.00
2023-05-10T06:01:39.965Z,931.00
2023-05-10T06:02:40.067Z,931.00
2023-05-10T06:03:40.011Z,925.00
2023-05-10T06:04:40.160Z,921.00
2023-05-10T06:05:40.688Z,920.00
2023-05-10T06:06:39.997Z,921.00
2023-05-10T06:07:39.972Z,915.00
2023-05-10T06:08:39.997Z,910.00
2023-05-10T06:09:40.010Z,909.00
2023-05-10T06:10:40.041Z,905.00
2023-05-10T06:11:40.020Z,905.00
2023-05-10T06:12:40.039Z,906.00
2023-05-10T06:13:40.042Z,901.00
2023-05-10T06:14:40.201Z,872.00
2023-05-10T06:15:40.053Z,868.00
2023-05-10T06:16:40.120Z,899.00
2023-05-10T06:17:40.149Z,891.00
2023-05-10T06:18:40.097Z,894.00
2023-05-10T06:19:40.188Z,903.00
2023-05-10T06:20:40.103Z,913.00
2023-05-10T06:21:40.106Z,922.00
2023-05-10T06:22:40.099Z,932.00
2023-05-10T06:23:40.099Z,984.00
2023-05-10T06:24:40.135Z,992.00
2023-05-10T06:25:40.130Z,989.00
2023-05-10T06:26:40.154Z,996.00
2023-05-10T06:27:40.175Z,1006.00
2023-05-10T06:28:40.252Z,1018.00
2023-05-10T06:29:40.298Z,1025.00
2023-05-10T06:30:40.734Z,1036.00
2023-05-10T06:31:40.502Z,1041.00
2023-05-10T06:32:40.459Z,1043.00
2023-05-10T06:33:40.497Z,1272.00
2023-05-10T06:34:40.705Z,1170.00
2023-05-10T06:35:40.592Z,1168.00
2023-05-10T06:36:40.630Z,1155.00
2023-05-10T06:37:40.748Z,1154.00
2023-05-10T06:38:40.680Z,1037.00
2023-05-10T06:39:41.215Z,943.00
2023-05-10T06:40:40.773Z,920.00
2023-05-10T06:41:40.801Z,884.00
2023-05-10T06:42:40.857Z,796.00
2023-05-10T06:43:40.870Z,805.00
2023-05-10T06:44:40.893Z,816.00
2023-05-10T06:45:41.695Z,791.00
2023-05-10T06:46:40.944Z,792.00
2023-05-10T06:47:41.032Z,785.00
2023-05-10T06:48:41.232Z,805.00
2023-05-10T06:49:40.929Z,770.00
2023-05-10T06:50:40.999Z,757.00
2023-05-10T06:51:41.020Z,757.00
2023-05-10T06:52:41.050Z,754.00
2023-05-10T06:53:41.117Z,750.00
2023-05-10T06:54:41.117Z,745.00
2023-05-10T06:55:41.146Z,739.00
2023-05-10T06:56:41.177Z,737.00
2023-05-10T06:57:41.165Z,742.00
2023-05-10T06:58:41.191Z,740.00
2023-05-10T06:59:41.372Z,739.00
2023-05-10T07:00:41.616Z,732.00
2023-05-10T07:01:41.752Z,725.00
2023-05-10T07:02:41.953Z,722.00
2023-05-10T07:03:42.006Z,723.00
2023-05-10T07:04:42.244Z,721.00
2023-05-10T07:05:42.418Z,720.00
2023-05-10T07:06:42.489Z,716.00
2023-05-10T07:07:42.638Z,732.00
2023-05-10T07:08:42.796Z,746.00
2023-05-10T07:09:42.915Z,811.00
2023-05-10T07:10:43.064Z,816.00
2023-05-10T07:11:43.197Z,826.00
2023-05-10T07:12:43.401Z,904.00
2023-05-10T07:13:43.576Z,932.00
2023-05-10T07:14:43.768Z,960.00
2023-05-10T07:15:43.800Z,982.00
2023-05-10T07:16:43.936Z,1006.00
2023-05-10T07:17:45.918Z,1033.00
2023-05-10T07:18:44.070Z,1045.00
2023-05-10T07:19:43.994Z,1049.00
2023-05-10T07:20:44.015Z,1064.00
2023-05-10T07:21:44.038Z,1089.00
2023-05-10T07:22:44.046Z,1112.00
2023-05-10T07:23:45.197Z,1122.00
2023-05-10T07:24:44.050Z,1122.00
2023-05-10T07:25:44.054Z,1123.00
2023-05-10T07:26:44.261Z,1101.00
2023-05-10T07:27:44.060Z,1077.00
2023-05-10T07:28:44.068Z,1086.00
2023-05-10T07:29:44.136Z,1054.00
2023-05-10T07:30:44.189Z,1050.00
2023-05-10T07:31:44.280Z,1042.00
2023-05-10T07:32:44.218Z,1059.00
2023-05-10T07:33:44.314Z,1064.00
2023-05-10T07:34:44.563Z,1067.00
2023-05-10T07:35:44.439Z,1070.00
2023-05-10T07:36:44.469Z,1076.00
2023-05-10T07:37:44.495Z,1081.00
2023-05-10T07:38:44.560Z,1082.00
2023-05-10T07:39:44.632Z,1075.00
2023-05-10T07:40:44.689Z,1072.00
2023-05-10T07:41:44.751Z,1070.00
2023-05-10T07:42:44.766Z,1036.00
2023-05-10T07:43:44.779Z,1034.00
2023-05-10T07:44:44.775Z,1032.00
2023-05-10T07:45:44.867Z,1016.00
2023-05-10T07:46:44.949Z,968.00
2023-05-10T07:47:45.026Z,948.00
2023-05-10T07:48:45.013Z,955.00
2023-05-10T07:49:45.256Z,962.00
2023-05-10T07:50:45.094Z,953.00
2023-05-10T07:51:45.120Z,888.00
2023-05-10T07:52:45.093Z,939.00
2023-05-10T07:53:45.139Z,958.00
2023-05-10T07:54:45.246Z,977.00
2023-05-10T07:55:45.154Z,991.00
2023-05-10T07:56:45.167Z,993.00
2023-05-10T07:57:45.204Z,989.00
2023-05-10T07:58:45.238Z,979.00
2023-05-10T07:59:45.749Z,976.00
2023-05-10T08:00:45.290Z,967.00
2023-05-10T08:01:45.318Z,962.00
2023-05-10T08:02:45.493Z,898.00
2023-05-10T08:03:45.464Z,911.00
2023-05-10T08:04:45.621Z,910.00
2023-05-10T08:05:45.453Z,911.00
2023-05-10T08:06:45.504Z,902.00
2023-05-10T08:07:45.508Z,888.00
2023-05-10T08:08:45.560Z,897.00
2023-05-10T08:09:45.549Z,905.00
2023-05-10T08:10:45.566Z,902.00
2023-05-10T08:11:45.580Z,901.00
2023-05-10T08:12:45.595Z,906.00
2023-05-10T08:13:45.784Z,914.00
2023-05-10T08:14:45.769Z,957.00
2023-05-10T08:15:45.734Z,989.00
2023-05-10T08:16:45.734Z,1004.00
2023-05-10T08:17:45.867Z,1011.00
2023-05-10T08:18:45.964Z,1023.00
2023-05-10T08:19:46.301Z,1056.00
2023-05-10T08:20:45.957Z,1067.00
2023-05-10T08:21:46.038Z,1076.00
2023-05-10T08:22:46.936Z,1157.00
2023-05-10T08:23:46.132Z,1323.00
2023-05-10T08:24:46.280Z,1215.00
2023-05-10T08:25:46.245Z,1210.00
2023-05-10T08:26:46.296Z,1202.00
2023-05-10T08:27:46.355Z,1200.00
2023-05-10T08:28:46.478Z,1215.00
2023-05-10T08:29:50.421Z,1243.00
2023-05-10T08:30:46.431Z,1305.00
2023-05-10T08:31:46.492Z,1292.00
2023-05-10T08:32:46.418Z,1538.00
2023-05-10T08:33:46.419Z,1273.00
2023-05-10T08:34:46.409Z,1252.00
2023-05-10T08:35:46.397Z,1249.00
2023-05-10T08:36:46.550Z,1191.00
2023-05-10T08:37:46.387Z,1135.00
2023-05-10T08:38:46.367Z,1093.00
2023-05-10T08:39:46.380Z,1070.00
2023-05-10T08:40:46.361Z,1045.00
2023-05-10T08:41:46.341Z,1037.00
2023-05-10T08:42:46.399Z,1031.00
2023-05-10T08:43:46.336Z,902.00
2023-05-10T08:44:48.214Z,886.00
2023-05-10T08:45:46.759Z,867.00
2023-05-10T08:46:46.428Z,796.00
2023-05-10T08:47:46.340Z,804.00
2023-05-10T08:48:46.315Z,707.00
2023-05-10T08:49:46.296Z,681.00
2023-05-10T08:50:46.796Z,662.00
2023-05-10T08:51:46.291Z,641.00
2023-05-10T08:52:46.307Z,598.00
2023-05-10T08:53:46.292Z,592.00
2023-05-10T08:54:46.370Z,587.00
2023-05-10T08:55:46.262Z,580.00
2023-05-10T08:56:48.565Z,579.00
2023-05-10T08:57:46.252Z,588.00
2023-05-10T08:58:46.283Z,581.00
2023-05-10T08:59:46.266Z,597.00
2023-05-10T09:00:46.259Z,612.00
2023-05-10T09:01:46.219Z,613.00
2023-05-10T09:02:46.337Z,606.00
2023-05-10T09:03:46.259Z,598.00
2023-05-10T09:04:46.328Z,597.00
2023-05-10T09:05:47.173Z,592.00
2023-05-10T09:06:46.205Z,595.00
2023-05-10T09:07:46.333Z,599.00
2023-05-10T09:08:46.195Z,607.00
2023-05-10T09:09:46.192Z,612.00
2023-05-10T09:10:46.278Z,621.00
2023-05-10T09:11:46.162Z,630.00
2023-05-10T09:12:46.723Z,636.00
2023-05-10T09:13:46.165Z,642.00
2023-05-10T09:14:46.137Z,637.00
2023-05-10T09:15:46.298Z,639.00
2023-05-10T09:16:46.200Z,634.00
2023-05-10T09:17:46.804Z,630.00
2023-05-10T09:18:46.150Z,628.00
2023-05-10T09:19:46.101Z,627.00
2023-05-10T09:20:46.270Z,626.00
2023-05-10T09:21:46.103Z,628.00
2023-05-10T09:22:46.216Z,629.00
2023-05-10T09:23:48.118Z,629.00
2023-05-10T09:24:46.093Z,631.00
2023-05-10T09:25:46.288Z,633.00
2023-05-10T09:26:46.194Z,663.00
2023-05-10T09:27:46.248Z,668.00
2023-05-10T09:28:46.277Z,738.00
2023-05-10T09:29:46.325Z,810.00
2023-05-10T09:30:46.406Z,808.00
2023-05-10T09:31:46.415Z,822.00
2023-05-10T09:32:46.512Z,832.00
2023-05-10T09:33:46.547Z,900.00
2023-05-10T09:34:46.557Z,928.00
2023-05-10T09:35:46.786Z,942.00
2023-05-10T09:36:46.679Z,975.00
2023-05-10T09:37:46.719Z,1002.00
2023-05-10T09:38:46.784Z,1015.00
2023-05-10T09:39:46.864Z,1042.00
2023-05-10T09:40:47.278Z,1063.00
2023-05-10T09:41:46.954Z,1081.00
2023-05-10T09:42:47.003Z,1099.00
2023-05-10T09:43:47.072Z,1112.00
2023-05-10T09:44:47.136Z,1144.00
2023-05-10T09:45:47.313Z,1162.00
2023-05-10T09:46:47.225Z,1171.00
2023-05-10T09:47:47.288Z,1173.00
2023-05-10T09:48:47.314Z,1188.00
2023-05-10T09:49:47.351Z,1204.00
2023-05-10T09:50:47.401Z,1218.00
2023-05-10T09:51:47.507Z,1218.00
2023-05-10T09:52:47.502Z,1207.00
2023-05-10T09:53:47.533Z,1199.00
2023-05-10T09:54:47.538Z,1187.00
2023-05-10T09:55:47.627Z,1186.00
2023-05-10T09:56:47.633Z,1185.00
2023-05-10T09:57:47.665Z,1187.00
2023-05-10T09:58:47.710Z,1187.00
2023-05-10T09:59:47.735Z,1183.00
2023-05-10T10:00:47.791Z,1165.00
2023-05-10T10:01:47.819Z,1151.00
2023-05-10T10:02:47.870Z,1138.00
2023-05-10T10:03:47.865Z,1121.00
2023-05-10T10:04:47.933Z,1113.00
2023-05-10T10:05:47.958Z,1086.00
2023-05-10T10:06:47.977Z,1074.00
2023-05-10T10:07:48.055Z,1063.00
2023-05-10T10:08:48.193Z,1051.00
2023-05-10T10:09:48.357Z,1037.00
2023-05-10T10:10:48.509Z,1023.00
2023-05-10T10:11:48.644Z,1016.00
2023-05-10T10:12:48.823Z,1021.00
2023-05-10T10:13:48.990Z,1037.00
2023-05-10T10:14:49.118Z,1093.00
2023-05-10T10:15:49.352Z,1087.00
2023-05-10T10:17:05.055Z,1104.00
2023-05-10T10:17:50.435Z,1101.00
2023-05-10T10:18:49.420Z,922.00
2023-05-10T10:19:49.415Z,896.00
2023-05-10T10:20:49.383Z,884.00
2023-05-10T10:21:49.390Z,920.00
2023-05-10T10:22:49.384Z,995.00
2023-05-10T10:23:49.372Z,836.00
2023-05-10T10:24:49.377Z,804.00
2023-05-10T10:25:49.369Z,779.00
2023-05-10T10:26:49.355Z,670.00
2023-05-10T10:27:49.361Z,666.00
2023-05-10T10:28:49.327Z,659.00
2023-05-10T10:29:49.375Z,647.00
2023-05-10T10:30:49.399Z,633.00
2023-05-10T10:31:49.556Z,620.00
2023-05-10T10:32:49.463Z,603.00
2023-05-10T10:33:49.461Z,589.00
2023-05-10T10:34:49.466Z,569.00
2023-05-10T10:35:49.856Z,561.00
2023-05-10T10:36:49.477Z,555.00
2023-05-10T10:37:49.534Z,546.00
2023-05-10T10:38:49.540Z,537.00
2023-05-10T10:39:49.574Z,528.00
2023-05-10T10:40:49.644Z,529.00
2023-05-10T10:41:49.621Z,533.00
2023-05-10T10:42:49.680Z,536.00
2023-05-10T10:43:49.735Z,541.00
2023-05-10T10:44:49.753Z,548.00
2023-05-10T10:45:49.785Z,552.00
2023-05-10T10:46:49.859Z,555.00
2023-05-10T10:47:49.885Z,555.00
2023-05-10T10:48:49.860Z,553.00
2023-05-10T10:49:49.908Z,550.00
2023-05-10T10:50:49.918Z,551.00
2023-05-10T10:51:49.929Z,550.00
2023-05-10T10:52:50.022Z,550.00
2023-05-10T10:53:49.927Z,550.00
2023-05-10T10:54:49.939Z,551.00
2023-05-10T10:55:49.962Z,548.00
2023-05-10T10:56:49.966Z,548.00
2023-05-10T10:57:49.965Z,548.00
2023-05-10T10:58:49.977Z,551.00
2023-05-10T10:59:49.976Z,551.00
2023-05-10T11:00:50.028Z,552.00
2023-05-10T11:01:49.979Z,557.00
2023-05-10T11:02:50.111Z,559.00
2023-05-10T11:03:50.032Z,566.00
2023-05-10T11:04:50.242Z,566.00
2023-05-10T11:05:50.025Z,559.00
2023-05-10T11:06:50.053Z,557.00
2023-05-10T11:07:50.044Z,559.00
2023-05-10T11:08:50.067Z,559.00
2023-05-10T11:09:50.084Z,561.00
2023-05-10T11:10:50.137Z,560.00
2023-05-10T11:11:50.144Z,562.00
2023-05-10T11:12:50.163Z,564.00
2023-05-10T11:13:51.447Z,564.00
2023-05-10T11:14:50.230Z,564.00
2023-05-10T11:15:50.369Z,565.00
2023-05-10T11:16:50.372Z,567.00
2023-05-10T11:17:50.423Z,568.00
2023-05-10T11:18:50.479Z,571.00
2023-05-10T11:19:50.465Z,570.00
2023-05-10T11:20:50.565Z,570.00
2023-05-10T11:21:50.623Z,572.00
2023-05-10T11:22:50.651Z,570.00
2023-05-10T11:23:50.728Z,566.00
2023-05-10T11:24:50.776Z,564.00
2023-05-10T11:25:50.869Z,562.00
2023-05-10T11:26:50.977Z,559.00
2023-05-10T11:27:50.967Z,558.00
2023-05-10T11:28:50.991Z,557.00
2023-05-10T11:29:51.035Z,559.00
2023-05-10T11:30:51.131Z,558.00
2023-05-10T11:31:51.170Z,556.00
2023-05-10T11:32:51.251Z,555.00
2023-05-10T11:33:51.308Z,555.00
2023-05-10T11:34:51.337Z,558.00
2023-05-10T11:35:51.421Z,554.00
2023-05-10T11:36:51.489Z,556.00
2023-05-10T11:37:51.528Z,554.00
2023-05-10T11:38:51.625Z,555.00
2023-05-10T11:39:51.671Z,556.00
2023-05-10T11:40:51.740Z,557.00
2023-05-10T11:41:51.803Z,558.00
2023-05-10T11:42:51.866Z,555.00
2023-05-10T11:43:51.934Z,554.00
2023-05-10T11:44:52.012Z,555.00
2023-05-10T11:45:52.100Z,555.00
2023-05-10T11:46:52.119Z,552.00
2023-05-10T11:47:52.152Z,551.00
2023-05-10T11:48:52.171Z,547.00
2023-05-10T11:49:52.220Z,545.00
2023-05-10T11:50:52.276Z,543.00
2023-05-10T11:51:52.364Z,543.00
2023-05-10T11:52:52.400Z,544.00
2023-05-10T11:53:52.469Z,546.00
2023-05-10T11:54:52.529Z,544.00
2023-05-10T11:55:52.588Z,546.00
2023-05-10T11:56:52.650Z,543.00
2023-05-10T11:57:52.682Z,542.00
2023-05-10T11:58:52.698Z,542.00
2023-05-10T11:59:52.760Z,539.00
2023-05-10T12:00:52.797Z,538.00
2023-05-10T12:01:52.891Z,538.00
2023-05-10T12:02:52.947Z,536.00
2023-05-10T12:03:53.073Z,537.00
2023-05-10T12:04:53.094Z,535.00
2023-05-10T12:05:53.067Z,533.00
2023-05-10T12:06:53.376Z,534.00
2023-05-10T12:07:53.132Z,534.00
2023-05-10T12:08:53.213Z,533.00
2023-05-10T12:09:53.220Z,533.00
2023-05-10T12:10:53.250Z,532.00
2023-05-10T12:11:53.344Z,532.00
2023-05-10T12:12:53.348Z,532.00
2023-05-10T12:13:53.368Z,533.00
2023-05-10T12:14:53.406Z,534.00
2023-05-10T12:15:53.539Z,530.00
2023-05-10T12:16:53.887Z,530.00
2023-05-10T12:17:53.584Z,529.00
2023-05-10T12:18:53.651Z,528.00
2023-05-10T12:19:53.569Z,530.00
2023-05-10T12:20:53.601Z,530.00
2023-05-10T12:21:53.620Z,530.00
2023-05-10T12:22:53.688Z,527.00
2023-05-10T12:23:53.685Z,525.00
2023-05-10T12:24:53.709Z,524.00
2023-05-10T12:25:53.751Z,522.00